Time;durP1;ratioP1;P1;durP2;ratioP2;P2;SDS_P1;SDS_P2;PMS_P1;PMS_P2;Temp;Humidity;BMP_temperature;BMP_pressure;BME280_temperature;BME280_humidity;BME280_pressure;Samples;Min_cycle;Max_cycle;Signal;HPM_P1;HPM_P2
2021/12/01 00:03:27;;;;;;;12.77;7.93;;;;;;;8.54;100.00;100024.84;5139610;27;20046;-76
2021/12/01 00:09:14;;;;;;;10.88;6.57;;;;;;;8.69;100.00;100056.47;5139079;27;20075;-77
2021/12/01 00:11:39;;;;;;;13.00;7.72;;;;;;;8.68;100.00;100038.88;5138407;27;20047;-76
2021/12/01 00:17:26;;;;;;;8.82;5.68;;;;;;;8.61;100.00;100014.94;5137347;27;20077;-75
2021/12/01 00:23:20;;;;;;;8.88;5.90;;;;;;;8.54;100.00;99958.25;5136118;27;20095;-77
2021/12/01 00:29:07;;;;;;;12.25;7.72;;;;;;;8.57;100.00;99959.66;5135947;28;20058;-75
2021/12/01 00:34:54;;;;;;;9.38;7.15;;;;;;;8.65;100.00;99946.81;5135664;28;20033;-76
2021/12/01 00:40:42;;;;;;;8.95;5.43;;;;;;;8.70;100.00;99946.19;5135634;28;20035;-77
2021/12/01 00:43:15;;;;;;;7.63;5.55;;;;;;;8.74;100.00;99934.03;5098187;28;20043;-76
2021/12/01 00:49:05;;;;;;;6.88;4.85;;;;;;;8.64;100.00;99915.06;5135658;28;20081;-77
2021/12/01 00:54:52;;;;;;;6.57;4.22;;;;;;;8.67;100.00;99910.13;5135402;28;20547;-77
2021/12/01 01:00:41;;;;;;;6.82;4.55;;;;;;;8.75;100.00;99919.66;5135474;28;20078;-78
2021/12/01 01:03:08;;;;;;;6.05;4.40;;;;;;;8.74;100.00;99912.72;5134318;28;20471;-75
2021/12/01 01:08:55;;;;;;;6.35;4.22;;;;;;;8.63;100.00;99886.78;5134951;28;20091;-76
2021/12/01 01:20:48;;;;;;;7.00;4.88;;;;;;;8.64;100.00;99867.09;5134914;28;20038;-76
2021/12/01 01:26:36;;;;;;;8.32;5.18;;;;;;;8.54;100.00;99832.19;5134985;28;20079;-77
2021/12/01 01:32:23;;;;;;;9.13;4.95;;;;;;;8.45;100.00;99828.22;5134768;28;20046;-77
2021/12/01 01:34:49;;;;;;;9.98;7.78;;;;;;;8.61;100.00;99855.06;5115463;28;20039;-76
2021/12/01 01:40:37;;;;;;;8.18;6.07;;;;;;;8.63;100.00;99846.81;5134381;28;20054;-77
2021/12/01 01:46:31;;;;;;;9.77;6.93;;;;;;;8.49;100.00;99827.56;5134320;28;20509;-80
2021/12/01 01:49:05;;;;;;;15.13;8.20;;;;;;;8.53;100.00;99841.22;5115328;28;20087;-76
2021/12/01 01:51:30;;;;;;;12.32;8.98;;;;;;;8.42;100.00;99810.03;5115686;28;20061;-76
2021/12/01 01:57:24;;;;;;;12.32;8.68;;;;;;;8.41;100.00;99805.75;5134408;27;20100;-78
2021/12/01 02:03:12;;;;;;;11.02;7.88;;;;;;;8.18;100.00;99771.81;5134129;28;20804;-77
2021/12/01 02:09:00;;;;;;;8.20;6.70;;;;;;;8.30;100.00;99754.81;5134233;28;20120;-78
2021/12/01 02:14:47;;;;;;;8.75;6.32;;;;;;;8.46;100.00;99777.41;5134149;28;20048;-77
2021/12/01 02:24:14;;;;;;;6.93;6.18;;;;;;;8.33;100.00;99737.56;5133982;28;20128;-78
2021/12/01 02:26:49;;;;;;;6.50;5.03;;;;;;;8.22;100.00;99728.50;5114495;28;20559;-76
2021/12/01 02:29:19;;;;;;;5.43;4.72;;;;;;;8.18;100.00;99676.75;5115278;28;20558;-77
2021/12/01 02:31:45;;;;;;;5.65;5.05;;;;;;;8.20;100.00;99692.50;5132873;28;20150;-78
2021/12/01 02:37:32;;;;;;;7.32;4.75;;;;;;;8.36;100.00;99721.97;5133888;28;20050;-78
2021/12/01 02:43:24;;;;;;;5.35;4.85;;;;;;;8.23;100.00;99687.53;5133872;28;20046;-77
2021/12/01 02:45:54;;;;;;;6.78;4.60;;;;;;;8.26;100.00;99683.59;5114152;28;20053;-77
2021/12/01 02:51:44;;;;;;;5.88;4.03;;;;;;;8.06;100.00;99641.28;5133586;27;20053;-80
2021/12/01 02:54:16;;;;;;;4.78;4.10;;;;;;;8.07;100.00;99638.38;5133657;28;20106;-77
2021/12/01 03:00:04;;;;;;;3.97;3.53;;;;;;;8.08;100.00;99645.34;5133436;28;20041;-80
2021/12/01 03:05:56;;;;;;;5.00;4.03;;;;;;;8.13;100.00;99626.03;5133536;28;20037;-76
2021/12/01 03:15:56;;;;;;;10.73;5.70;;;;;;;8.15;100.00;99625.81;5133146;28;20087;-78
2021/12/01 03:21:46;;;;;;;7.15;5.22;;;;;;;7.88;100.00;99588.94;5134292;28;20054;-77
2021/12/01 03:24:12;;;;;;;5.85;4.90;;;;;;;7.85;100.00;99580.59;5115147;28;20045;-78
2021/12/01 03:26:38;;;;;;;7.90;5.10;;;;;;;7.99;100.00;99595.31;5114368;28;20031;-76
2021/12/01 03:29:06;;;;;;;7.80;5.30;;;;;;;7.99;100.00;99584.69;5114554;28;20023;-79
2021/12/01 03:31:32;;;;;;;6.57;5.10;;;;;;;7.93;100.00;99593.56;5114619;28;20047;-79
2021/12/01 03:40:42;;;;;;;7.28;6.20;;;;;;;7.99;100.00;99561.53;5133059;28;20046;-78
2021/12/01 03:43:08;;;;;;;8.05;5.55;;;;;;;7.83;100.00;99550.75;5113663;28;20103;-78
2021/12/01 03:45:38;;;;;;;8.43;5.68;;;;;;;7.89;100.00;99542.66;5114305;28;20118;-78
2021/12/01 03:48:07;;;;;;;7.30;5.47;;;;;;;7.75;100.00;99544.69;5132492;28;20439;-78
2021/12/01 03:53:54;;;;;;;7.57;6.63;;;;;;;7.82;100.00;99525.19;5135355;28;20084;-77
2021/12/01 03:56:20;;;;;;;9.82;5.63;;;;;;;7.62;100.00;99510.31;5135038;28;20050;-77
2021/12/01 04:02:07;;;;;;;7.70;5.93;;;;;;;7.62;100.00;99494.34;5135538;28;20039;-77
2021/12/01 04:07:54;;;;;;;8.10;5.78;;;;;;;7.61;100.00;99455.50;5136333;27;20216;-76
2021/12/01 04:10:21;;;;;;;7.50;5.82;;;;;;;7.72;100.00;99454.69;5116700;28;20039;-76
2021/12/01 04:12:49;;;;;;;9.45;6.63;;;;;;;7.42;100.00;99440.66;5135767;28;20027;-77
2021/12/01 04:15:16;;;;;;;8.68;7.78;;;;;;;7.77;100.00;99461.97;5116939;28;20047;-77
2021/12/01 04:21:03;;;;;;;9.40;7.45;;;;;;;7.78;100.00;99451.09;5135772;28;20054;-77
2021/12/01 04:23:30;;;;;;;9.43;6.85;;;;;;;7.73;100.00;99435.03;5134759;28;20039;-77
2021/12/01 04:29:17;;;;;;;9.68;6.95;;;;;;;7.74;100.00;99402.06;5135514;28;20050;-78
2021/12/01 04:31:43;;;;;;;7.57;6.30;;;;;;;7.79;100.00;99435.94;5135537;28;20035;-78
2021/12/01 04:34:08;;;;;;;8.25;6.05;;;;;;;7.73;100.00;99421.72;5116957;28;20367;-78
2021/12/01 04:36:38;;;;;;;8.02;5.65;;;;;;;7.63;100.00;99408.19;5130477;28;20047;-78
2021/12/01 04:42:25;;;;;;;5.63;4.38;;;;;;;7.78;100.00;99394.41;5135798;28;20134;-79
2021/12/01 04:44:51;;;;;;;6.47;4.93;;;;;;;7.81;100.00;99350.59;5116878;28;20098;-77
2021/12/01 04:47:18;;;;;;;5.90;4.38;;;;;;;7.82;100.00;99389.47;5134451;28;20049;-78
2021/12/01 04:49:44;;;;;;;6.13;4.93;;;;;;;7.67;100.00;99360.66;5116871;28;20027;-78
2021/12/01 04:55:31;;;;;;;6.22;4.13;;;;;;;7.67;100.00;99326.06;5135254;27;20050;-77
2021/12/01 04:57:57;;;;;;;6.18;5.15;;;;;;;7.53;100.00;99346.78;5116595;28;20031;-78
2021/12/01 05:00:26;;;;;;;6.45;5.00;;;;;;;7.38;100.00;99343.75;5134089;28;20688;-77
2021/12/01 05:06:15;;;;;;;6.57;5.78;;;;;;;7.27;100.00;99344.56;5135143;28;20571;-79
2021/12/01 05:12:06;;;;;;;7.78;4.68;;;;;;;7.24;100.00;99321.09;5134937;28;20446;-78
2021/12/01 05:17:53;;;;;;;8.50;4.82;;;;;;;7.13;100.00;99326.16;5134778;28;20119;-78
2021/12/01 05:20:18;;;;;;;5.53;4.00;;;;;;;7.21;100.00;99303.72;5134580;28;20055;-78
2021/12/01 05:26:07;;;;;;;4.18;3.17;;;;;;;7.18;100.00;99282.94;5134505;28;20378;-77
2021/12/01 05:28:33;;;;;;;4.95;3.28;;;;;;;7.11;100.00;99284.91;5134522;28;20038;-78
2021/12/01 05:30:58;;;;;;;4.88;3.63;;;;;;;7.17;100.00;99318.53;5115470;28;20137;-79
2021/12/01 05:33:23;;;;;;;5.75;3.80;;;;;;;7.12;100.00;99297.16;5134467;28;20038;-79
2021/12/01 05:35:49;;;;;;;5.25;3.35;;;;;;;7.08;100.00;99299.47;5133880;28;20039;-79
2021/12/01 05:41:36;;;;;;;5.10;3.33;;;;;;;7.01;100.00;99295.28;5134707;28;20096;-79
2021/12/01 05:47:24;;;;;;;6.45;4.25;;;;;;;6.83;100.00;99256.31;5134687;27;20053;-79
2021/12/01 05:49:49;;;;;;;5.60;3.40;;;;;;;6.88;100.00;99309.56;5133435;28;20031;-79
2021/12/01 05:52:15;;;;;;;4.13;2.60;;;;;;;6.84;100.00;99255.28;5115761;28;20398;-83
2021/12/01 05:54:43;;;;;;;6.10;3.40;;;;;;;6.84;100.00;99249.97;5133665;28;20074;-78
2021/12/01 06:00:30;;;;;;;6.32;3.40;;;;;;;6.89;100.00;99247.44;5134318;27;20163;-81
2021/12/01 06:02:56;;;;;;;3.97;3.15;;;;;;;6.82;100.00;99220.97;5119092;28;20170;-81
2021/12/01 06:05:22;;;;;;;4.47;2.80;;;;;;;6.79;100.00;99224.09;5133783;28;20039;-79
2021/12/01 06:11:09;;;;;;;4.70;3.78;;;;;;;6.77;100.00;99201.47;5134237;28;20448;-80
2021/12/01 06:13:34;;;;;;;5.35;2.97;;;;;;;6.89;100.00;99217.41;5133041;28;20043;-79
2021/12/01 06:19:21;;;;;;;5.75;4.65;;;;;;;6.82;100.00;99193.59;5133673;28;20045;-80
2021/12/01 06:21:47;;;;;;;6.05;4.28;;;;;;;6.83;100.00;99185.41;5133473;28;20047;-79
2021/12/01 06:24:12;;;;;;;4.65;3.35;;;;;;;6.91;100.00;99183.44;5133470;28;20050;-78
2021/12/01 06:26:38;;;;;;;5.13;3.88;;;;;;;6.83;100.00;99188.06;5132808;28;20050;-78
2021/12/01 06:29:04;;;;;;;5.15;3.70;;;;;;;6.91;100.00;99168.31;5115166;28;20046;-77
2021/12/01 06:34:51;;;;;;;3.95;3.13;;;;;;;6.92;100.00;99167.25;5134042;28;20489;-80
2021/12/01 06:40:39;;;;;;;5.15;4.28;;;;;;;6.99;100.00;99170.63;5133405;28;20441;-75
2021/12/01 06:46:26;;;;;;;5.93;4.20;;;;;;;7.00;100.00;99156.31;5133886;28;20049;-78
2021/12/01 06:52:13;;;;;;;4.80;3.55;;;;;;;6.99;100.00;99122.81;5133677;27;20060;-79
2021/12/01 06:58:00;;;;;;;4.90;3.50;;;;;;;7.03;100.00;99139.91;5133454;28;20046;-80
2021/12/01 07:03:47;;;;;;;4.68;3.67;;;;;;;7.09;100.00;99138.16;5133129;28;20118;-80
2021/12/01 07:06:13;;;;;;;6.82;4.78;;;;;;;7.09;100.00;99128.34;5114609;28;20118;-82
2021/12/01 07:12:00;;;;;;;7.45;5.95;;;;;;;7.12;100.00;99116.41;5133258;28;20054;-78
2021/12/01 07:17:47;;;;;;;6.85;5.05;;;;;;;7.18;100.00;99104.03;5133415;28;20405;-78
2021/12/01 07:20:13;;;;;;;6.40;4.40;;;;;;;7.13;100.00;99116.19;5114379;28;20027;-76
2021/12/01 07:26:01;;;;;;;5.90;3.85;;;;;;;7.25;100.00;99120.69;5132887;27;20391;-78
2021/12/01 07:28:27;;;;;;;6.43;4.40;;;;;;;7.26;100.00;99111.66;5135597;28;20047;-75
2021/12/01 07:30:52;;;;;;;6.85;4.55;;;;;;;7.25;100.00;99126.00;5136342;28;20031;-76
2021/12/01 07:36:39;;;;;;;7.07;4.97;;;;;;;7.32;100.00;99116.03;5136135;28;20042;-77
2021/12/01 07:42:26;;;;;;;8.18;4.00;;;;;;;7.39;100.00;99098.09;5136700;28;20076;-77
2021/12/01 07:48:13;;;;;;;5.45;4.30;;;;;;;7.41;100.00;99093.34;5136016;28;20103;-82
2021/12/01 07:54:00;;;;;;;7.40;4.88;;;;;;;7.43;100.00;99092.06;5136201;28;20046;-80
2021/12/01 07:59:47;;;;;;;6.90;4.90;;;;;;;7.58;100.00;99072.13;5136145;28;20517;-78
2021/12/01 08:02:13;;;;;;;5.22;3.85;;;;;;;7.59;100.00;99069.25;5135879;28;20038;-81
2021/12/01 08:08:00;;;;;;;4.43;3.97;;;;;;;7.68;100.00;99089.06;5136065;28;20046;-78
2021/12/01 08:10:25;;;;;;;5.30;3.60;;;;;;;7.66;100.00;99077.88;5134887;28;20130;-78
2021/12/01 08:12:51;;;;;;;6.68;4.68;;;;;;;7.58;100.00;99059.66;5135544;28;20058;-79
2021/12/01 08:15:16;;;;;;;5.07;3.97;;;;;;;7.70;100.00;99070.22;5135732;28;20091;-78
2021/12/01 08:21:03;;;;;;;4.78;4.07;;;;;;;7.69;100.00;99058.78;5135577;28;20151;-79
2021/12/01 08:26:50;;;;;;;4.78;4.07;;;;;;;7.77;100.00;99060.22;5135643;28;20506;-80
2021/12/01 08:29:16;;;;;;;7.97;5.07;;;;;;;7.65;100.00;99051.50;5134640;28;20051;-79
2021/12/01 08:35:03;;;;;;;8.50;5.80;;;;;;;7.72;100.00;99038.88;5135940;28;20107;-78
2021/12/01 08:40:50;;;;;;;6.88;5.43;;;;;;;7.80;100.00;99048.28;5131398;28;20105;-79
2021/12/01 08:46:37;;;;;;;7.47;5.28;;;;;;;7.88;100.00;99029.28;5135710;28;20042;-77
2021/12/01 08:52:26;;;;;;;5.82;4.03;;;;;;;8.12;100.00;99035.28;5135139;28;20054;-78
2021/12/01 08:58:14;;;;;;;5.88;3.92;;;;;;;8.38;100.00;99046.09;5135323;27;20123;-77
2021/12/01 09:04:02;;;;;;;4.45;3.33;;;;;;;8.68;100.00;99021.75;5134929;28;20088;-79
2021/12/01 09:09:49;;;;;;;7.68;3.60;;;;;;;8.46;100.00;99052.06;5135106;27;20053;-77
2021/12/01 09:12:14;;;;;;;3.70;2.92;;;;;;;8.40;100.00;99040.53;5133780;28;20039;-78
2021/12/01 09:18:02;;;;;;;4.32;3.50;;;;;;;8.30;100.00;99048.31;5135086;28;20143;-77
2021/12/01 09:23:49;;;;;;;5.82;2.97;;;;;;;8.32;100.00;99043.56;5133985;28;20038;-78
2021/12/01 09:29:36;;;;;;;5.00;3.40;;;;;;;8.29;100.00;99046.72;5134773;27;20060;-79
2021/12/01 09:35:24;;;;;;;7.55;4.03;;;;;;;8.22;100.00;99036.22;5134999;28;20045;-80
2021/12/01 09:41:11;;;;;;;5.45;3.88;;;;;;;8.21;100.00;99029.28;5134326;27;20037;-81
2021/12/01 09:46:59;;;;;;;5.05;3.53;;;;;;;8.11;100.00;99070.94;5134889;28;20061;-80
2021/12/01 09:52:46;;;;;;;9.13;4.07;;;;;;;8.03;100.00;99080.09;5134022;28;20053;-80
2021/12/01 09:58:35;;;;;;;5.05;2.40;;;;;;;7.92;100.00;99063.16;5134478;28;20054;-81
2021/12/01 10:04:24;;;;;;;5.82;2.65;;;;;;;8.22;100.00;99072.69;5134055;28;20092;-78
2021/12/01 10:10:13;;;;;;;8.65;2.28;;;;;;;7.96;100.00;99064.28;5133945;28;20367;-80
2021/12/01 10:16:02;;;;;;;8.55;2.70;;;;;;;8.01;100.00;99080.34;5134125;28;20042;-77
2021/12/01 10:21:51;;;;;;;9.73;2.30;;;;;;;8.26;100.00;99055.19;5134017;27;20054;-77
2021/12/01 10:27:38;;;;;;;9.07;3.20;;;;;;;8.65;100.00;99072.03;5133775;28;20543;-80
2021/12/01 10:33:28;;;;;;;7.85;2.22;;;;;;;8.95;100.00;99067.13;5133926;28;20042;-76
2021/12/01 10:39:15;;;;;;;10.20;2.42;;;;;;;8.72;100.00;99072.69;5133624;28;20053;-79
2021/12/01 10:48:26;;;;;;;3.88;1.60;;;;;;;8.96;100.00;99057.25;5133361;28;20039;-77
2021/12/01 10:54:19;;;;;;;7.88;1.70;;;;;;;9.78;100.00;99050.97;5133392;28;20087;-79
2021/12/01 11:00:26;;;;;;;4.55;1.42;;;;;;;9.25;100.00;99068.53;5133400;28;20080;-79
2021/12/01 11:06:21;;;;;;;6.85;1.30;;;;;;;8.56;100.00;99069.00;5132985;28;20054;-79
2021/12/01 11:12:08;;;;;;;5.93;1.88;;;;;;;7.97;100.00;99067.75;5133330;28;20046;-78
2021/12/01 11:17:57;;;;;;;9.48;1.58;;;;;;;7.81;100.00;99082.69;5133497;28;20081;-82
2021/12/01 11:23:50;;;;;;;6.65;1.77;;;;;;;7.82;100.00;99078.16;5136247;28;20390;-82
2021/12/01 11:29:36;;;;;;;5.20;1.83;;;;;;;7.82;100.00;99083.47;5133347;27;20035;-78
2021/12/01 11:35:24;;;;;;;7.00;1.35;;;;;;;7.86;100.00;99074.78;5132963;28;20046;-79
2021/12/01 11:41:10;;;;;;;7.47;1.63;;;;;;;7.94;100.00;99082.34;5133024;28;20739;-80
2021/12/01 11:46:57;;;;;;;7.88;1.63;;;;;;;7.97;100.00;99067.75;5132694;27;20502;-78
2021/12/01 11:53:16;;;;;;;6.18;1.80;;;;;;;8.12;100.00;99049.41;5132826;28;20521;-74
2021/12/01 11:59:15;;;;;;;7.38;1.70;;;;;;;8.28;100.00;99064.53;5132798;28;20090;-77
2021/12/01 12:05:15;;;;;;;5.35;2.50;;;;;;;8.17;100.00;99069.97;5132655;28;20042;-77
2021/12/01 12:11:38;;;;;;;9.55;2.55;;;;;;;8.22;100.00;99080.69;5133659;28;20558;-79
2021/12/01 12:17:35;;;;;;;5.88;2.55;;;;;;;8.02;100.00;99078.50;5136266;28;20095;-78
2021/12/01 12:23:32;;;;;;;7.22;1.98;;;;;;;8.04;100.00;99060.41;5136322;28;20131;-78
2021/12/01 12:29:26;;;;;;;7.60;1.85;;;;;;;8.05;100.00;99073.50;5136065;28;20530;-80
2021/12/01 12:35:16;;;;;;;8.65;1.65;;;;;;;7.89;100.00;99057.53;5135951;28;20050;-78
2021/12/01 12:41:07;;;;;;;9.10;1.85;;;;;;;7.98;100.00;99050.75;5135929;27;20050;-77
2021/12/01 12:47:07;;;;;;;7.30;2.33;;;;;;;8.08;100.00;99082.84;5135470;28;20042;-79
2021/12/01 12:53:04;;;;;;;8.98;1.85;;;;;;;8.08;100.00;99062.34;5135582;28;20046;-79
2021/12/01 12:58:52;;;;;;;9.65;2.47;;;;;;;8.26;100.00;99066.66;5135365;28;20084;-78
2021/12/01 13:10:38;;;;;;;5.18;1.85;;;;;;;8.44;100.00;99075.47;5134680;28;20084;-77
2021/12/01 13:16:28;;;;;;;6.30;1.85;;;;;;;8.41;100.00;99044.81;5134987;28;20138;-76
2021/12/01 13:22:15;;;;;;;10.82;2.15;;;;;;;8.26;100.00;99065.84;5134607;28;20047;-77
2021/12/01 13:28:04;;;;;;;7.90;1.85;;;;;;;8.23;100.00;99071.66;5135081;28;20134;-77
2021/12/01 13:33:51;;;;;;;9.77;1.92;;;;;;;8.20;100.00;99072.13;5135070;28;20555;-75
2021/12/01 13:39:39;;;;;;;8.70;1.98;;;;;;;8.34;100.00;99081.44;5134482;27;20045;-78
2021/12/01 13:45:28;;;;;;;14.50;3.85;;;;;;;7.97;100.00;99051.78;5134265;28;20050;-79
2021/12/01 13:51:16;;;;;;;23.88;16.48;;;;;;;7.98;100.00;99053.41;5134727;27;20049;-78
2021/12/01 13:57:09;;;;;;;14.65;7.00;;;;;;;8.04;100.00;99087.84;5134486;28;20072;-77
2021/12/01 14:02:56;;;;;;;8.10;2.55;;;;;;;8.00;100.00;99085.91;5133851;28;20099;-77
2021/12/01 14:08:52;;;;;;;11.00;4.53;;;;;;;8.02;100.00;99083.81;5134024;28;20553;-81
2021/12/01 14:14:40;;;;;;;7.30;2.20;;;;;;;8.06;100.00;99098.25;5133809;28;20069;-79
2021/12/01 14:20:28;;;;;;;15.43;3.63;;;;;;;8.13;100.00;99098.94;5134012;28;20087;-78
2021/12/01 14:26:17;;;;;;;17.27;3.90;;;;;;;7.95;100.00;99109.78;5133608;28;20041;-78
2021/12/01 14:32:10;;;;;;;10.52;2.88;;;;;;;7.93;100.00;99101.22;5134864;28;20066;-80
2021/12/01 14:37:57;;;;;;;13.77;3.40;;;;;;;7.90;100.00;99115.81;5132977;27;20041;-79
2021/12/01 14:43:59;;;;;;;11.32;3.20;;;;;;;7.85;100.00;99128.22;5133666;28;20050;-78
2021/12/01 14:49:53;;;;;;;13.63;2.83;;;;;;;7.89;100.00;99086.78;5133866;28;20058;-77
2021/12/01 14:55:45;;;;;;;9.18;2.40;;;;;;;7.80;100.00;99128.91;5133403;28;20459;-78
2021/12/01 15:01:34;;;;;;;10.02;2.83;;;;;;;7.92;100.00;99134.22;5133702;28;20120;-79
2021/12/01 15:07:21;;;;;;;14.77;3.13;;;;;;;7.82;100.00;99126.84;5133277;28;20558;-78
2021/12/01 15:13:37;;;;;;;25.33;7.22;;;;;;;7.82;100.00;99121.53;5133208;28;20272;-79
2021/12/01 15:19:25;;;;;;;14.43;3.50;;;;;;;7.54;100.00;99114.34;5132284;28;20082;-78
2021/12/01 15:25:12;;;;;;;10.07;4.63;;;;;;;7.56;100.00;99138.06;5133004;27;20050;-78
2021/12/01 15:31:04;;;;;;;9.27;2.95;;;;;;;7.53;100.00;99134.03;5132949;28;20405;-77
2021/12/01 15:36:52;;;;;;;15.38;2.85;;;;;;;7.40;100.00;99145.72;5133046;27;20084;-77
2021/12/01 15:42:39;;;;;;;10.15;3.33;;;;;;;7.38;100.00;99169.06;5133087;28;20046;-76
2021/12/01 15:48:26;;;;;;;19.67;4.15;;;;;;;7.01;100.00;99205.75;5133617;27;20046;-77
2021/12/01 15:54:13;;;;;;;8.88;3.08;;;;;;;6.63;100.00;99222.09;5136385;28;20448;-76
2021/12/01 16:00:04;;;;;;;9.50;2.03;;;;;;;6.08;100.00;99227.63;5136397;28;20073;-74
2021/12/01 16:05:52;;;;;;;6.53;1.52;;;;;;;5.68;100.00;99229.09;5135827;28;20045;-74
2021/12/01 16:11:39;;;;;;;7.85;2.05;;;;;;;5.66;100.00;99245.22;5136361;28;20054;-74
2021/12/01 16:17:26;;;;;;;7.93;2.17;;;;;;;5.76;100.00;99253.47;5135761;28;20061;-75
2021/12/01 16:23:15;;;;;;;57.72;31.70;;;;;;;5.81;100.00;99263.44;5136025;28;20054;-75
2021/12/01 16:29:02;;;;;;;74.45;34.35;;;;;;;5.73;100.00;99264.50;5135766;28;20092;-74
2021/12/01 16:34:49;;;;;;;6.72;4.97;;;;;;;5.77;100.00;99278.94;5135716;28;20045;-74
2021/12/01 16:40:38;;;;;;;11.98;4.10;;;;;;;5.85;100.00;99281.31;5135341;28;20050;-74
2021/12/01 16:46:25;;;;;;;19.95;7.32;;;;;;;5.79;100.00;99295.47;5135416;28;20038;-74
2021/12/01 16:52:12;;;;;;;17.92;12.05;;;;;;;5.77;100.00;99310.78;5135482;28;20045;-75
2021/12/01 16:58:01;;;;;;;9.75;3.00;;;;;;;5.75;100.00;99320.78;5135502;28;20111;-74
2021/12/01 17:03:54;;;;;;;9.57;2.70;;;;;;;5.75;100.00;99339.34;5135221;28;20378;-75
2021/12/01 17:09:41;;;;;;;8.15;2.53;;;;;;;5.76;100.00;99342.81;5135147;28;20092;-75
2021/12/01 17:15:28;;;;;;;10.90;2.30;;;;;;;5.59;100.00;99355.84;5134788;28;20038;-75
2021/12/01 17:21:16;;;;;;;6.72;2.63;;;;;;;5.38;100.00;99354.38;5135030;28;20054;-74
2021/12/01 17:27:20;;;;;;;9.05;2.20;;;;;;;5.34;100.00;99370.94;5134909;27;20437;-75
2021/12/01 17:33:07;;;;;;;9.52;2.22;;;;;;;5.23;100.00;99369.81;5134985;28;20547;-74
2021/12/01 17:38:54;;;;;;;13.48;2.20;;;;;;;5.21;100.00;99387.78;5135011;28;20046;-75
2021/12/01 17:44:41;;;;;;;5.40;1.67;;;;;;;5.26;100.00;99395.88;5134778;28;20042;-74
2021/12/01 17:50:28;;;;;;;15.32;2.88;;;;;;;5.24;100.00;99409.34;5134781;28;20050;-74
2021/12/01 17:56:16;;;;;;;11.50;4.32;;;;;;;5.12;100.00;99411.03;5134395;27;20042;-74
2021/12/01 18:02:03;;;;;;;24.73;16.15;;;;;;;4.95;100.00;99429.28;5134678;28;20127;-73
2021/12/01 18:08:09;;;;;;;14.52;7.53;;;;;;;4.89;100.00;99432.75;5133941;27;20407;-74
2021/12/01 18:13:56;;;;;;;8.60;3.55;;;;;;;4.91;100.00;99433.38;5134262;28;20437;-73
2021/12/01 18:19:43;;;;;;;9.07;2.50;;;;;;;4.96;100.00;99456.59;5134218;28;20093;-74
2021/12/01 18:25:31;;;;;;;16.48;2.60;;;;;;;5.06;100.00;99474.66;5134006;27;20038;-73
2021/12/01 18:31:19;;;;;;;10.73;3.25;;;;;;;5.15;100.00;99479.50;5134233;28;20060;-73
2021/12/01 18:37:06;;;;;;;12.63;2.85;;;;;;;5.13;100.00;99489.50;5134165;28;20087;-73
2021/12/01 18:42:54;;;;;;;8.52;4.20;;;;;;;5.09;100.00;99493.59;5133908;28;20045;-74
2021/12/01 18:48:41;;;;;;;11.35;3.53;;;;;;;5.16;100.00;99510.25;5134013;28;20187;-74
2021/12/01 18:54:28;;;;;;;14.25;2.47;;;;;;;5.21;100.00;99528.19;5133546;28;20057;-75
2021/12/01 19:00:19;;;;;;;11.52;3.13;;;;;;;5.19;100.00;99540.81;5133442;28;20038;-72
2021/12/01 19:06:06;;;;;;;12.30;2.95;;;;;;;5.07;100.00;99543.34;5133210;27;20545;-75
2021/12/01 19:11:53;;;;;;;13.82;2.63;;;;;;;5.08;100.00;99544.16;5133485;28;20131;-73
2021/12/01 19:17:40;;;;;;;8.60;3.80;;;;;;;4.94;100.00;99549.50;5133414;28;20050;-73
2021/12/01 19:23:27;;;;;;;7.30;2.40;;;;;;;4.78;100.00;99554.44;5135058;27;20073;-74
2021/12/01 19:29:15;;;;;;;12.23;3.63;;;;;;;4.71;100.00;99569.53;5136959;28;20169;-74
2021/12/01 19:35:03;;;;;;;9.07;3.35;;;;;;;4.59;100.00;99579.91;5136743;28;20046;-74
2021/12/01 19:40:51;;;;;;;9.68;2.03;;;;;;;4.38;100.00;99590.75;5136644;28;20050;-73
2021/12/01 19:46:38;;;;;;;10.73;3.33;;;;;;;4.23;100.00;99601.53;5136222;28;20038;-72
2021/12/01 19:52:26;;;;;;;8.52;3.40;;;;;;;4.18;100.00;99614.56;5136457;28;20088;-75
2021/12/01 19:58:13;;;;;;;11.85;3.65;;;;;;;4.38;100.00;99612.75;5136644;27;20108;-73
2021/12/01 20:04:00;;;;;;;10.57;4.68;;;;;;;4.53;100.00;99626.56;5136249;28;20046;-74
2021/12/01 20:09:49;;;;;;;11.73;2.80;;;;;;;4.58;100.00;99626.75;5136513;28;20053;-75
2021/12/01 20:15:37;;;;;;;10.82;3.25;;;;;;;4.44;100.00;99646.31;5136212;27;20085;-76
2021/12/01 20:21:25;;;;;;;6.78;2.17;;;;;;;4.33;100.00;99646.91;5136290;28;20516;-78
2021/12/01 20:27:12;;;;;;;10.13;2.60;;;;;;;4.09;100.00;99618.44;5135647;28;20168;-76
2021/12/01 20:33:02;;;;;;;12.65;2.85;;;;;;;4.38;100.00;99665.66;5135740;28;20050;-77
2021/12/01 20:38:52;;;;;;;10.32;4.57;;;;;;;4.30;100.00;99668.47;5135622;28;20104;-75
2021/12/01 20:44:41;;;;;;;8.93;2.83;;;;;;;4.17;100.00;99669.28;5135664;28;20126;-75
2021/12/01 20:47:17;;;;;;;12.73;2.78;;;;;;;4.17;100.00;99679.06;5116230;28;20490;-74
2021/12/01 20:59:09;;;;;;;11.75;3.15;;;;;;;3.82;100.00;99678.38;5135323;27;20058;-74
2021/12/01 21:04:57;;;;;;;14.82;4.45;;;;;;;3.77;100.00;99689.56;5135396;28;20042;-74
2021/12/01 21:10:54;;;;;;;11.55;3.70;;;;;;;3.74;100.00;99693.38;5134657;28;20099;-74
2021/12/01 21:16:44;;;;;;;11.93;3.28;;;;;;;3.60;100.00;99689.06;5134816;28;20037;-75
2021/12/01 21:22:32;;;;;;;9.55;3.20;;;;;;;3.56;100.00;99690.47;5135205;28;20052;-75
2021/12/01 21:28:21;;;;;;;9.52;3.17;;;;;;;3.61;100.00;99708.38;5135240;28;20136;-74
2021/12/01 21:34:10;;;;;;;11.80;3.10;;;;;;;3.67;100.00;99712.88;5134719;28;20046;-75
2021/12/01 21:36:35;;;;;;;12.52;4.22;;;;;;;3.65;100.00;99712.25;5119351;28;20085;-75
2021/12/01 21:42:23;;;;;;;15.50;3.55;;;;;;;3.53;100.00;99711.19;5134844;28;20084;-74
2021/12/01 21:48:10;;;;;;;11.35;4.28;;;;;;;3.42;100.00;99720.47;5134414;28;20084;-75
2021/12/01 21:53:58;;;;;;;5.05;2.78;;;;;;;3.33;100.00;99717.19;5134507;28;20043;-78
2021/12/01 21:59:55;;;;;;;11.32;3.33;;;;;;;3.27;100.00;99707.41;5134156;27;20054;-76
2021/12/01 22:05:43;;;;;;;8.40;3.40;;;;;;;3.18;100.00;99724.44;5134323;28;20066;-75
2021/12/01 22:11:30;;;;;;;19.08;3.13;;;;;;;3.09;100.00;99721.09;5133875;28;20136;-76
2021/12/01 22:17:17;;;;;;;14.70;3.80;;;;;;;3.09;100.00;99729.03;5134384;27;20092;-76
2021/12/01 22:23:09;;;;;;;19.25;3.60;;;;;;;3.22;100.00;99738.06;5134274;28;20050;-75
2021/12/01 22:28:56;;;;;;;12.07;3.88;;;;;;;3.30;100.00;99727.34;5133834;28;20084;-76
2021/12/01 22:34:48;;;;;;;13.45;3.60;;;;;;;3.37;100.00;99741.38;5134199;28;20513;-76
2021/12/01 22:40:36;;;;;;;8.10;3.85;;;;;;;3.44;100.00;99747.53;5134125;28;20045;-76
2021/12/01 22:46:24;;;;;;;13.45;4.07;;;;;;;3.37;100.00;99744.84;5133395;27;20099;-78
2021/12/01 22:52:11;;;;;;;13.85;4.03;;;;;;;3.34;100.00;99752.34;5133709;28;20080;-77
2021/12/01 22:57:59;;;;;;;12.48;4.10;;;;;;;3.24;100.00;99757.16;5133004;27;20046;-77
2021/12/01 23:03:47;;;;;;;12.85;4.28;;;;;;;3.04;100.00;99764.94;5133725;28;20082;-78
2021/12/01 23:09:37;;;;;;;17.63;4.43;;;;;;;2.91;100.00;99759.56;5133555;28;20043;-76
2021/12/01 23:15:25;;;;;;;9.02;4.95;;;;;;;3.00;100.00;99769.78;5133276;28;20516;-75
2021/12/01 23:21:16;;;;;;;10.45;4.30;;;;;;;3.05;100.00;99787.69;5133411;28;20391;-76
2021/12/01 23:33:28;;;;;;;12.32;4.18;;;;;;;3.17;100.00;99795.91;5133255;28;20043;-76
2021/12/01 23:42:37;;;;;;;15.75;3.92;;;;;;;3.19;100.00;99789.44;5133066;28;20038;-77
2021/12/01 23:54:19;;;;;;;11.27;3.38;;;;;;;3.10;100.00;99791.41;5132720;27;20137;-79
